sensor_id;sensor_type;location;lat;lon;timestamp;pressure;altitude;pressure_sealevel;temperature;humidity
19112;BME280;9688;51.906;8.376;2023-03-20T00:00:55;100958.81;;;10.25;100.00
19112;BME280;9688;51.906;8.376;2023-03-20T00:03:41;100953.69;;;10.20;100.00
19112;BME280;9688;51.906;8.376;2023-03-20T00:06:28;100951.19;;;10.16;100.00
19112;BME280;9688;51.906;8.376;2023-03-20T00:09:14;100957.47;;;10.12;100.00
19112;BME280;9688;51.906;8.376;2023-03-20T00:12:01;100964.63;;;10.08;100.00
19112;BME280;9688;51.906;8.376;2023-03-20T00:14:49;100962.91;;;10.07;100.00
19112;BME280;9688;51.906;8.376;2023-03-20T00:17:35;100954.97;;;10.07;100.00
19112;BME280;9688;51.906;8.376;2023-03-20T00:20:21;100962.91;;;10.07;100.00
19112;BME280;9688;51.906;8.376;2023-03-20T00:23:09;100961.97;;;10.08;100.00
19112;BME280;9688;51.906;8.376;2023-03-20T00:25:55;100967.16;;;10.11;100.00
19112;BME280;9688;51.906;8.376;2023-03-20T00:28:42;100966.19;;;10.14;100.00
19112;BME280;9688;51.906;8.376;2023-03-20T00:31:30;100968.75;;;10.17;100.00
19112;BME280;9688;51.906;8.376;2023-03-20T00:34:17;100970.41;;;10.21;100.00
19112;BME280;9688;51.906;8.376;2023-03-20T00:37:03;100971.13;;;10.26;100.00
19112;BME280;9688;51.906;8.376;2023-03-20T00:39:51;100956.91;;;10.30;100.00
19112;BME280;9688;51.906;8.376;2023-03-20T00:42:37;100951.53;;;10.33;100.00
19112;BME280;9688;51.906;8.376;2023-03-20T00:45:22;100952.34;;;10.35;100.00
19112;BME280;9688;51.906;8.376;2023-03-20T00:48:12;100952.34;;;10.35;100.00
19112;BME280;9688;51.906;8.376;2023-03-20T00:50:59;100944.50;;;10.34;100.00
19112;BME280;9688;51.906;8.376;2023-03-20T00:53:44;100950.56;;;10.36;100.00
19112;BME280;9688;51.906;8.376;2023-03-20T00:56:34;100947.81;;;10.39;100.00
19112;BME280;9688;51.906;8.376;2023-03-20T00:59:23;100953.00;;;10.42;100.00
19112;BME280;9688;51.906;8.376;2023-03-20T01:02:11;100957.34;;;10.44;100.00
19112;BME280;9688;51.906;8.376;2023-03-20T01:04:57;100958.97;;;10.48;100.00
19112;BME280;9688;51.906;8.376;2023-03-20T01:07:42;100972.13;;;10.50;100.00
19112;BME280;9688;51.906;8.376;2023-03-20T01:10:31;100975.75;;;10.47;100.00
19112;BME280;9688;51.906;8.376;2023-03-20T01:13:21;100977.50;;;10.47;100.00
19112;BME280;9688;51.906;8.376;2023-03-20T01:16:18;100973.97;;;10.48;100.00
19112;BME280;9688;51.906;8.376;2023-03-20T01:19:04;100966.91;;;10.48;100.00
19112;BME280;9688;51.906;8.376;2023-03-20T01:21:50;100973.91;;;10.49;100.00
19112;BME280;9688;51.906;8.376;2023-03-20T01:24:36;100963.31;;;10.51;100.00
19112;BME280;9688;51.906;8.376;2023-03-20T01:27:22;100972.09;;;10.52;100.00
19112;BME280;9688;51.906;8.376;2023-03-20T01:30:17;100966.78;;;10.53;100.00
19112;BME280;9688;51.906;8.376;2023-03-20T01:33:08;100965.88;;;10.53;100.00
19112;BME280;9688;51.906;8.376;2023-03-20T01:35:57;100956.97;;;10.55;100.00
19112;BME280;9688;51.906;8.376;2023-03-20T01:38:42;100962.28;;;10.55;100.00
19112;BME280;9688;51.906;8.376;2023-03-20T01:41:29;100971.13;;;10.54;100.00
19112;BME280;9688;51.906;8.376;2023-03-20T01:44:19;100971.94;;;10.56;100.00
19112;BME280;9688;51.906;8.376;2023-03-20T01:47:15;100975.44;;;10.57;100.00
19112;BME280;9688;51.906;8.376;2023-03-20T01:50:26;100988.66;;;10.57;100.00
19112;BME280;9688;51.906;8.376;2023-03-20T01:53:15;100993.75;;;10.63;100.00
19112;BME280;9688;51.906;8.376;2023-03-20T01:56:02;100990.09;;;10.67;100.00
19112;BME280;9688;51.906;8.376;2023-03-20T01:58:55;100996.16;;;10.70;100.00
19112;BME280;9688;51.906;8.376;2023-03-20T02:01:43;101003.97;;;10.74;100.00
19112;BME280;9688;51.906;8.376;2023-03-20T02:04:32;100995.09;;;10.76;100.00
19112;BME280;9688;51.906;8.376;2023-03-20T02:07:20;101004.63;;;10.80;100.00
19112;BME280;9688;51.906;8.376;2023-03-20T02:10:10;101000.13;;;10.84;100.00
19112;BME280;9688;51.906;8.376;2023-03-20T02:13:04;100999.19;;;10.85;100.00
19112;BME280;9688;51.906;8.376;2023-03-20T02:16:00;101002.66;;;10.87;100.00
19112;BME280;9688;51.906;8.376;2023-03-20T02:18:48;100999.09;;;10.88;100.00
19112;BME280;9688;51.906;8.376;2023-03-20T02:22:00;100998.16;;;10.89;100.00
19112;BME280;9688;51.906;8.376;2023-03-20T02:25:13;100996.41;;;10.89;100.00
19112;BME280;9688;51.906;8.376;2023-03-20T02:35:11;100983.28;;;10.86;100.00
19112;BME280;9688;51.906;8.376;2023-03-20T02:38:11;100982.56;;;10.81;100.00
19112;BME280;9688;51.906;8.376;2023-03-20T02:41:03;100974.56;;;10.83;100.00
19112;BME280;9688;51.906;8.376;2023-03-20T02:44:00;100973.59;;;10.85;100.00
19112;BME280;9688;51.906;8.376;2023-03-20T02:46:55;100979.72;;;10.87;100.00
19112;BME280;9688;51.906;8.376;2023-03-20T02:49:52;100979.72;;;10.87;100.00
19112;BME280;9688;51.906;8.376;2023-03-20T02:52:44;100985.94;;;10.86;100.00
19112;BME280;9688;51.906;8.376;2023-03-20T02:55:38;100987.78;;;10.83;100.00
19112;BME280;9688;51.906;8.376;2023-03-20T02:58:30;100985.16;;;10.83;100.00
19112;BME280;9688;51.906;8.376;2023-03-20T03:01:26;101001.88;;;10.83;100.00
19112;BME280;9688;51.906;8.376;2023-03-20T03:04:15;100995.81;;;10.81;100.00
19112;BME280;9688;51.906;8.376;2023-03-20T03:07:04;100993.19;;;10.80;100.00
19112;BME280;9688;51.906;8.376;2023-03-20T03:09:54;100995.84;;;10.80;100.00
19112;BME280;9688;51.906;8.376;2023-03-20T03:12:45;100995.91;;;10.78;100.00
19112;BME280;9688;51.906;8.376;2023-03-20T03:15:35;100992.44;;;10.76;100.00
19112;BME280;9688;51.906;8.376;2023-03-20T03:18:24;101001.28;;;10.75;100.00
19112;BME280;9688;51.906;8.376;2023-03-20T03:21:12;101007.47;;;10.74;100.00
19112;BME280;9688;51.906;8.376;2023-03-20T03:24:01;101001.22;;;10.77;100.00
19112;BME280;9688;51.906;8.376;2023-03-20T03:26:47;100993.28;;;10.77;100.00
19112;BME280;9688;51.906;8.376;2023-03-20T03:29:35;101002.94;;;10.78;100.00
19112;BME280;9688;51.906;8.376;2023-03-20T03:32:27;101002.16;;;10.76;100.00
19112;BME280;9688;51.906;8.376;2023-03-20T03:35:16;101003.13;;;10.73;100.00
19112;BME280;9688;51.906;8.376;2023-03-20T03:38:15;101013.00;;;10.66;100.00
19112;BME280;9688;51.906;8.376;2023-03-20T03:41:13;101007.00;;;10.61;99.85
19112;BME280;9688;51.906;8.376;2023-03-20T03:44:10;101015.97;;;10.57;99.94
19112;BME280;9688;51.906;8.376;2023-03-20T03:47:03;101009.81;;;10.57;100.00
19112;BME280;9688;51.906;8.376;2023-03-20T03:49:54;101005.44;;;10.56;100.00
19112;BME280;9688;51.906;8.376;2023-03-20T03:52:45;101005.44;;;10.56;100.00
19112;BME280;9688;51.906;8.376;2023-03-20T03:55:34;101002.13;;;10.49;100.00
19112;BME280;9688;51.906;8.376;2023-03-20T03:58:25;101001.38;;;10.45;100.00
19112;BME280;9688;51.906;8.376;2023-03-20T04:01:15;100989.97;;;10.43;100.00
19112;BME280;9688;51.906;8.376;2023-03-20T04:04:06;100984.69;;;10.43;99.72
19112;BME280;9688;51.906;8.376;2023-03-20T04:06:54;100982.91;;;10.44;100.00
19112;BME280;9688;51.906;8.376;2023-03-20T04:09:40;100989.22;;;10.40;99.53
19112;BME280;9688;51.906;8.376;2023-03-20T04:12:32;100985.88;;;10.33;99.61
19112;BME280;9688;51.906;8.376;2023-03-20T04:15:19;100981.50;;;10.34;99.93
19112;BME280;9688;51.906;8.376;2023-03-20T04:18:05;100981.63;;;10.29;99.49
19112;BME280;9688;51.906;8.376;2023-03-20T04:20:52;100965.88;;;10.24;99.60
19112;BME280;9688;51.906;8.376;2023-03-20T04:23:38;100971.25;;;10.21;99.54
19112;BME280;9688;51.906;8.376;2023-03-20T04:26:23;100971.34;;;10.18;99.55
19112;BME280;9688;51.906;8.376;2023-03-20T04:29:09;100971.34;;;10.18;99.83
19112;BME280;9688;51.906;8.376;2023-03-20T04:31:55;100971.34;;;10.18;99.87
19112;BME280;9688;51.906;8.376;2023-03-20T04:34:40;100974.91;;;10.17;99.35
19112;BME280;9688;51.906;8.376;2023-03-20T04:37:27;100977.59;;;10.16;98.89
19112;BME280;9688;51.906;8.376;2023-03-20T04:40:14;100973.34;;;10.12;98.87
19112;BME280;9688;51.906;8.376;2023-03-20T04:43:00;100967.13;;;10.13;98.71
19112;BME280;9688;51.906;8.376;2023-03-20T04:45:51;100957.41;;;10.13;99.31
19112;BME280;9688;51.906;8.376;2023-03-20T04:48:37;100958.38;;;10.11;99.62
19112;BME280;9688;51.906;8.376;2023-03-20T04:51:22;100957.56;;;10.09;99.62
19112;BME280;9688;51.906;8.376;2023-03-20T04:54:09;100960.25;;;10.07;98.78
19112;BME280;9688;51.906;8.376;2023-03-20T04:56:55;100965.63;;;10.04;98.86
19112;BME280;9688;51.906;8.376;2023-03-20T04:59:40;100968.22;;;10.05;99.15
19112;BME280;9688;51.906;8.376;2023-03-20T05:02:51;100965.56;;;10.05;98.66
19112;BME280;9688;51.906;8.376;2023-03-20T05:05:37;100969.03;;;10.08;99.13
19112;BME280;9688;51.906;8.376;2023-03-20T05:08:22;100965.53;;;10.07;98.31
19112;BME280;9688;51.906;8.376;2023-03-20T05:11:09;100969.91;;;10.08;98.91
19112;BME280;9688;51.906;8.376;2023-03-20T05:13:56;100975.06;;;10.13;98.83
19112;BME280;9688;51.906;8.376;2023-03-20T05:16:41;100974.91;;;10.17;97.72
19112;BME280;9688;51.906;8.376;2023-03-20T05:19:27;100969.63;;;10.17;97.37
19112;BME280;9688;51.906;8.376;2023-03-20T05:22:16;100979.31;;;10.17;97.47
19112;BME280;9688;51.906;8.376;2023-03-20T05:25:02;100989.84;;;10.18;97.10
19112;BME280;9688;51.906;8.376;2023-03-20T05:27:49;100987.25;;;10.17;97.32
19112;BME280;9688;51.906;8.376;2023-03-20T05:30:34;100985.59;;;10.14;96.71
19112;BME280;9688;51.906;8.376;2023-03-20T05:33:20;100984.78;;;10.11;98.03
19112;BME280;9688;51.906;8.376;2023-03-20T05:36:07;100997.16;;;10.09;97.54
19112;BME280;9688;51.906;8.376;2023-03-20T05:38:53;100993.66;;;10.08;97.12
19112;BME280;9688;51.906;8.376;2023-03-20T05:41:39;100994.63;;;10.05;97.60
19112;BME280;9688;51.906;8.376;2023-03-20T05:44:26;100991.31;;;9.99;97.66
19112;BME280;9688;51.906;8.376;2023-03-20T05:47:11;100990.47;;;9.98;97.40
19112;BME280;9688;51.906;8.376;2023-03-20T05:49:57;100994.81;;;9.99;97.39
19112;BME280;9688;51.906;8.376;2023-03-20T05:52:45;100994.81;;;9.99;97.35
19112;BME280;9688;51.906;8.376;2023-03-20T05:55:31;100991.28;;;10.00;96.35
19112;BME280;9688;51.906;8.376;2023-03-20T05:58:17;100988.66;;;10.00;97.45
19112;BME280;9688;51.906;8.376;2023-03-20T06:01:04;100985.09;;;10.01;96.69
19112;BME280;9688;51.906;8.376;2023-03-20T06:03:50;100983.38;;;10.00;96.87
19112;BME280;9688;51.906;8.376;2023-03-20T06:06:36;100983.31;;;10.02;97.22
19112;BME280;9688;51.906;8.376;2023-03-20T06:09:21;100977.16;;;10.01;96.02
19112;BME280;9688;51.906;8.376;2023-03-20T06:12:08;100987.66;;;10.03;96.87
19112;BME280;9688;51.906;8.376;2023-03-20T06:14:54;100994.59;;;10.07;96.61
19112;BME280;9688;51.906;8.376;2023-03-20T06:17:41;100999.69;;;10.13;95.40
19112;BME280;9688;51.906;8.376;2023-03-20T06:20:26;100996.91;;;10.18;96.25
19112;BME280;9688;51.906;8.376;2023-03-20T06:23:12;100995.97;;;10.20;95.38
19112;BME280;9688;51.906;8.376;2023-03-20T06:25:58;101000.22;;;10.24;96.00
19112;BME280;9688;51.906;8.376;2023-03-20T06:28:43;100999.19;;;10.30;95.10
19112;BME280;9688;51.906;8.376;2023-03-20T06:31:29;101000.78;;;10.36;94.72
19112;BME280;9688;51.906;8.376;2023-03-20T06:34:16;100987.56;;;10.36;94.56
19112;BME280;9688;51.906;8.376;2023-03-20T06:37:02;100988.38;;;10.38;94.96
19112;BME280;9688;51.906;8.376;2023-03-20T06:39:47;100998.97;;;10.38;94.80
19112;BME280;9688;51.906;8.376;2023-03-20T06:42:34;101008.47;;;10.43;94.86
19112;BME280;9688;51.906;8.376;2023-03-20T06:45:20;101005.63;;;10.49;93.98
19112;BME280;9688;51.906;8.376;2023-03-20T06:48:07;101008.13;;;10.54;94.25
19112;BME280;9688;51.906;8.376;2023-03-20T06:50:55;101007.22;;;10.55;94.43
19112;BME280;9688;51.906;8.376;2023-03-20T06:53:42;101010.69;;;10.57;94.08
19112;BME280;9688;51.906;8.376;2023-03-20T06:56:28;101015.97;;;10.57;94.87
19112;BME280;9688;51.906;8.376;2023-03-20T06:59:14;101017.88;;;10.52;94.36
19112;BME280;9688;51.906;8.376;2023-03-20T07:02:02;101020.50;;;10.54;94.66
19112;BME280;9688;51.906;8.376;2023-03-20T07:04:49;101023.03;;;10.57;93.69
19112;BME280;9688;51.906;8.376;2023-03-20T07:07:36;101029.06;;;10.62;94.46
19112;BME280;9688;51.906;8.376;2023-03-20T07:10:24;101027.06;;;10.68;93.64
19112;BME280;9688;51.906;8.376;2023-03-20T07:13:09;101025.28;;;10.69;93.37
19112;BME280;9688;51.906;8.376;2023-03-20T07:15:59;101038.69;;;10.63;92.55
19112;BME280;9688;51.906;8.376;2023-03-20T07:18:47;101043.25;;;10.58;92.48
19112;BME280;9688;51.906;8.376;2023-03-20T07:21:33;101042.50;;;10.54;93.08
19112;BME280;9688;51.906;8.376;2023-03-20T07:24:20;101042.50;;;10.54;91.62
19112;BME280;9688;51.906;8.376;2023-03-20T07:27:05;101046.94;;;10.54;92.10
19112;BME280;9688;51.906;8.376;2023-03-20T07:29:51;101049.47;;;10.57;92.00
19112;BME280;9688;51.906;8.376;2023-03-20T07:32:39;101048.44;;;10.61;91.16
19112;BME280;9688;51.906;8.376;2023-03-20T07:35:27;101050.22;;;10.60;91.34
19112;BME280;9688;51.906;8.376;2023-03-20T07:38:13;101055.38;;;10.65;90.91
19112;BME280;9688;51.906;8.376;2023-03-20T07:41:03;101052.75;;;10.65;89.88
19112;BME280;9688;51.906;8.376;2023-03-20T07:43:49;101052.84;;;10.62;90.80
19112;BME280;9688;51.906;8.376;2023-03-20T07:46:35;101055.59;;;10.59;90.58
19112;BME280;9688;51.906;8.376;2023-03-20T07:49:21;101059.03;;;10.61;90.01
19112;BME280;9688;51.906;8.376;2023-03-20T07:52:07;101058.91;;;10.64;89.05
19112;BME280;9688;51.906;8.376;2023-03-20T07:54:55;101064.91;;;10.70;89.49
19112;BME280;9688;51.906;8.376;2023-03-20T07:57:42;101060.22;;;10.79;88.94
19112;BME280;9688;51.906;8.376;2023-03-20T08:00:30;101065.19;;;10.89;88.70
19112;BME280;9688;51.906;8.376;2023-03-20T08:03:16;101061.47;;;10.95;88.14
19112;BME280;9688;51.906;8.376;2023-03-20T08:06:02;101064.28;;;10.89;87.87
19112;BME280;9688;51.906;8.376;2023-03-20T08:08:51;101071.97;;;10.97;88.13
19112;BME280;9688;51.906;8.376;2023-03-20T08:11:37;101065.59;;;11.04;87.60
19112;BME280;9688;51.906;8.376;2023-03-20T08:14:24;101067.19;;;11.08;87.74
19112;BME280;9688;51.906;8.376;2023-03-20T08:17:10;101073.00;;;11.19;87.83
19112;BME280;9688;51.906;8.376;2023-03-20T08:19:56;101076.09;;;11.32;87.44
19112;BME280;9688;51.906;8.376;2023-03-20T08:22:43;101070.59;;;11.38;86.23
19112;BME280;9688;51.906;8.376;2023-03-20T08:25:30;101075.63;;;11.46;86.47
19112;BME280;9688;51.906;8.376;2023-03-20T08:28:17;101077.19;;;11.51;85.56
19112;BME280;9688;51.906;8.376;2023-03-20T08:31:08;101075.47;;;11.50;85.95
19112;BME280;9688;51.906;8.376;2023-03-20T08:33:54;101067.19;;;11.59;85.90
19112;BME280;9688;51.906;8.376;2023-03-20T08:36:41;101068.66;;;11.68;84.90
19112;BME280;9688;51.906;8.376;2023-03-20T08:39:26;101074.38;;;11.81;84.13
19112;BME280;9688;51.906;8.376;2023-03-20T08:42:13;101082.84;;;11.92;83.62
19112;BME280;9688;51.906;8.376;2023-03-20T08:44:59;101081.84;;;11.95;83.57
19112;BME280;9688;51.906;8.376;2023-03-20T08:47:48;101086.50;;;11.88;82.92
19112;BME280;9688;51.906;8.376;2023-03-20T08:50:36;101079.41;;;11.89;83.03
19112;BME280;9688;51.906;8.376;2023-03-20T08:53:23;101075.75;;;11.93;82.56
19112;BME280;9688;51.906;8.376;2023-03-20T08:56:11;101083.91;;;11.87;82.49
19112;BME280;9688;51.906;8.376;2023-03-20T08:59:00;101083.72;;;11.91;82.29
19112;BME280;9688;51.906;8.376;2023-03-20T09:01:47;101082.88;;;11.91;82.28
19112;BME280;9688;51.906;8.376;2023-03-20T09:04:33;101082.13;;;11.87;81.22
19112;BME280;9688;51.906;8.376;2023-03-20T09:07:19;101073.59;;;11.77;81.24
19112;BME280;9688;51.906;8.376;2023-03-20T09:10:10;101078.97;;;11.76;81.73
19112;BME280;9688;51.906;8.376;2023-03-20T09:12:59;101085.34;;;11.70;81.14
19112;BME280;9688;51.906;8.376;2023-03-20T09:15:50;101087.06;;;11.71;80.83
19112;BME280;9688;51.906;8.376;2023-03-20T09:18:36;101086.81;;;11.79;80.77
19112;BME280;9688;51.906;8.376;2023-03-20T09:21:25;101079.03;;;11.99;79.93
19112;BME280;9688;51.906;8.376;2023-03-20T09:24:13;101074.25;;;12.09;79.22
19112;BME280;9688;51.906;8.376;2023-03-20T09:27:00;101082.25;;;12.08;79.55
19112;BME280;9688;51.906;8.376;2023-03-20T09:29:46;101084.78;;;12.11;78.62
19112;BME280;9688;51.906;8.376;2023-03-20T09:32:34;101088.13;;;12.16;78.97
19112;BME280;9688;51.906;8.376;2023-03-20T09:35:20;101090.66;;;12.19;77.96
19112;BME280;9688;51.906;8.376;2023-03-20T09:38:07;101090.63;;;12.20;77.67
19112;BME280;9688;51.906;8.376;2023-03-20T09:40:55;101083.25;;;12.28;77.59
19112;BME280;9688;51.906;8.376;2023-03-20T09:43:56;101092.16;;;12.26;76.88
19112;BME280;9688;51.906;8.376;2023-03-20T09:46:59;101079.66;;;12.30;76.77
19112;BME280;9688;51.906;8.376;2023-03-20T09:50:00;101086.34;;;12.40;76.39
19112;BME280;9688;51.906;8.376;2023-03-20T09:52:57;101084.38;;;12.45;76.27
19112;BME280;9688;51.906;8.376;2023-03-20T09:55:48;101090.59;;;12.44;75.81
19112;BME280;9688;51.906;8.376;2023-03-20T09:58:38;101096.34;;;12.55;75.01
19112;BME280;9688;51.906;8.376;2023-03-20T10:01:30;101076.66;;;12.61;74.65
19112;BME280;9688;51.906;8.376;2023-03-20T10:04:17;101089.94;;;12.61;74.09
19112;BME280;9688;51.906;8.376;2023-03-20T10:07:04;101088.81;;;12.66;74.23
19112;BME280;9688;51.906;8.376;2023-03-20T10:09:50;101090.56;;;12.67;73.48
19112;BME280;9688;51.906;8.376;2023-03-20T10:12:49;101094.34;;;12.62;73.50
19112;BME280;9688;51.906;8.376;2023-03-20T10:15:45;101081.31;;;12.56;73.21
19112;BME280;9688;51.906;8.376;2023-03-20T10:18:34;101076.34;;;12.46;73.35
19112;BME280;9688;51.906;8.376;2023-03-20T10:21:31;101087.19;;;12.40;73.54
19112;BME280;9688;51.906;8.376;2023-03-20T10:24:27;101081.16;;;12.37;73.01
19112;BME280;9688;51.906;8.376;2023-03-20T10:27:18;101092.75;;;12.34;73.36
19112;BME280;9688;51.906;8.376;2023-03-20T10:30:22;101087.56;;;12.31;73.23
19112;BME280;9688;51.906;8.376;2023-03-20T10:33:19;101071.16;;;12.43;73.32
19112;BME280;9688;51.906;8.376;2023-03-20T10:36:22;101074.38;;;12.52;72.82
19112;BME280;9688;51.906;8.376;2023-03-20T10:39:16;101067.38;;;12.50;72.94
19112;BME280;9688;51.906;8.376;2023-03-20T10:42:12;101058.34;;;12.55;72.14
19112;BME280;9688;51.906;8.376;2023-03-20T10:45:01;101065.28;;;12.59;71.74
19112;BME280;9688;51.906;8.376;2023-03-20T10:47:51;101052.19;;;12.54;71.91
19112;BME280;9688;51.906;8.376;2023-03-20T10:50:40;101067.00;;;12.60;71.46
19112;BME280;9688;51.906;8.376;2023-03-20T10:53:31;101049.50;;;12.78;71.36
19112;BME280;9688;51.906;8.376;2023-03-20T10:56:26;101052.22;;;12.97;70.37
19112;BME280;9688;51.906;8.376;2023-03-20T10:59:19;101048.13;;;13.10;69.76
19112;BME280;9688;51.906;8.376;2023-03-20T11:02:09;101044.63;;;13.09;69.75
19112;BME280;9688;51.906;8.376;2023-03-20T11:04:58;101040.44;;;13.04;69.59
19112;BME280;9688;51.906;8.376;2023-03-20T11:07:46;101040.13;;;13.11;69.58
19112;BME280;9688;51.906;8.376;2023-03-20T11:10:38;101030.91;;;13.20;69.05
19112;BME280;9688;51.906;8.376;2023-03-20T11:13:30;101037.50;;;13.32;68.80
19112;BME280;9688;51.906;8.376;2023-03-20T11:16:19;101020.97;;;13.46;68.53
19112;BME280;9688;51.906;8.376;2023-03-20T11:19:07;101021.31;;;13.38;68.39
19112;BME280;9688;51.906;8.376;2023-03-20T11:21:59;101022.00;;;13.21;68.02
19112;BME280;9688;51.906;8.376;2023-03-20T11:24:50;101031.19;;;13.14;67.94
19112;BME280;9688;51.906;8.376;2023-03-20T11:27:37;101038.38;;;13.10;67.48
19112;BME280;9688;51.906;8.376;2023-03-20T11:30:23;101028.66;;;13.11;67.26
19112;BME280;9688;51.906;8.376;2023-03-20T11:33:09;101027.75;;;13.10;67.63
19112;BME280;9688;51.906;8.376;2023-03-20T11:35:57;101021.47;;;13.13;67.36
19112;BME280;9688;51.906;8.376;2023-03-20T11:38:45;101020.16;;;13.23;66.76
19112;BME280;9688;51.906;8.376;2023-03-20T11:41:30;101019.63;;;13.35;66.77
19112;BME280;9688;51.906;8.376;2023-03-20T11:44:23;101016.97;;;13.35;66.28
19112;BME280;9688;51.906;8.376;2023-03-20T11:47:12;101010.91;;;13.33;65.92
19112;BME280;9688;51.906;8.376;2023-03-20T11:50:24;101012.88;;;13.28;65.97
19112;BME280;9688;51.906;8.376;2023-03-20T11:53:20;101009.97;;;13.34;65.84
19112;BME280;9688;51.906;8.376;2023-03-20T11:56:11;101010.94;;;13.32;65.31
19112;BME280;9688;51.906;8.376;2023-03-20T11:59:01;101005.78;;;13.29;65.53
19112;BME280;9688;51.906;8.376;2023-03-20T12:01:50;101008.31;;;13.32;64.88
19112;BME280;9688;51.906;8.376;2023-03-20T12:04:37;101018.88;;;13.33;64.59
19112;BME280;9688;51.906;8.376;2023-03-20T12:07:29;100999.91;;;13.41;64.39
19112;BME280;9688;51.906;8.376;2023-03-20T12:10:17;100996.25;;;13.44;64.14
19112;BME280;9688;51.906;8.376;2023-03-20T12:13:12;100992.41;;;13.51;63.87
19112;BME280;9688;51.906;8.376;2023-03-20T12:16:03;100989.47;;;13.57;63.58
19112;BME280;9688;51.906;8.376;2023-03-20T12:18:56;100996.25;;;13.64;63.49
19112;BME280;9688;51.906;8.376;2023-03-20T12:21:47;100993.50;;;13.66;63.16
19112;BME280;9688;51.906;8.376;2023-03-20T12:24:40;100989.19;;;13.63;63.36
19112;BME280;9688;51.906;8.376;2023-03-20T12:27:31;100991.94;;;13.61;62.81
19112;BME280;9688;51.906;8.376;2023-03-20T12:30:30;100993.78;;;13.59;65.31
19112;BME280;9688;51.906;8.376;2023-03-20T12:33:35;100996.03;;;13.69;65.10
19112;BME280;9688;51.906;8.376;2023-03-20T12:36:26;100988.56;;;13.77;63.83
19112;BME280;9688;51.906;8.376;2023-03-20T12:39:17;100997.44;;;13.77;63.73
19112;BME280;9688;51.906;8.376;2023-03-20T12:42:08;100988.44;;;13.80;63.47
19112;BME280;9688;51.906;8.376;2023-03-20T12:45:00;100994.97;;;13.73;63.38
19112;BME280;9688;51.906;8.376;2023-03-20T12:48:16;100988.34;;;13.63;63.57
19112;BME280;9688;51.906;8.376;2023-03-20T12:51:11;100990.34;;;13.57;63.68
19112;BME280;9688;51.906;8.376;2023-03-20T12:54:13;100986.78;;;13.38;64.07
19112;BME280;9688;51.906;8.376;2023-03-20T12:57:13;100994.69;;;13.19;64.41
19112;BME280;9688;51.906;8.376;2023-03-20T13:00:16;100997.56;;;13.13;63.97
19112;BME280;9688;51.906;8.376;2023-03-20T13:03:16;100991.53;;;13.09;64.24
19112;BME280;9688;51.906;8.376;2023-03-20T13:06:11;100988.41;;;13.00;64.06
19112;BME280;9688;51.906;8.376;2023-03-20T13:09:24;100990.41;;;12.94;64.47
19112;BME280;9688;51.906;8.376;2023-03-20T13:12:28;100985.88;;;12.97;64.40
19112;BME280;9688;51.906;8.376;2023-03-20T13:15:33;100986.69;;;12.99;64.79
19112;BME280;9688;51.906;8.376;2023-03-20T13:18:29;100989.44;;;12.97;64.80
19112;BME280;9688;51.906;8.376;2023-03-20T13:21:24;100985.34;;;12.88;65.14
19112;BME280;9688;51.906;8.376;2023-03-20T13:24:23;100990.06;;;12.82;65.38
19112;BME280;9688;51.906;8.376;2023-03-20T13:27:24;100986.56;;;12.81;65.35
19112;BME280;9688;51.906;8.376;2023-03-20T13:30:18;100985.06;;;12.74;65.76
19112;BME280;9688;51.906;8.376;2023-03-20T13:33:30;100989.13;;;12.61;65.64
19112;BME280;9688;51.906;8.376;2023-03-20T13:36:56;100984.09;;;12.55;65.95
19112;BME280;9688;51.906;8.376;2023-03-20T13:39:48;100986.19;;;12.46;66.23
19112;BME280;9688;51.906;8.376;2023-03-20T13:42:44;100983.63;;;12.45;65.66
19112;BME280;9688;51.906;8.376;2023-03-20T13:45:34;100977.94;;;12.54;65.31
19112;BME280;9688;51.906;8.376;2023-03-20T13:48:28;100980.28;;;12.62;65.40
19112;BME280;9688;51.906;8.376;2023-03-20T13:51:22;100971.34;;;12.64;64.81
19112;BME280;9688;51.906;8.376;2023-03-20T13:54:17;100975.38;;;12.73;65.01
19112;BME280;9688;51.906;8.376;2023-03-20T13:57:11;100963.97;;;12.71;64.97
19112;BME280;9688;51.906;8.376;2023-03-20T14:00:18;100965.47;;;12.56;65.42
19112;BME280;9688;51.906;8.376;2023-03-20T14:03:17;100966.66;;;12.49;64.70
19112;BME280;9688;51.906;8.376;2023-03-20T14:06:17;100965.06;;;12.45;65.28
19112;BME280;9688;51.906;8.376;2023-03-20T14:09:24;100961.59;;;12.43;64.66
19112;BME280;9688;51.906;8.376;2023-03-20T14:12:11;100961.34;;;12.49;64.59
19112;BME280;9688;51.906;8.376;2023-03-20T14:14:59;100960.91;;;12.60;65.27
19112;BME280;9688;51.906;8.376;2023-03-20T14:17:48;100964.16;;;12.66;65.06
19112;BME280;9688;51.906;8.376;2023-03-20T14:20:39;100969.53;;;12.65;64.28
19112;BME280;9688;51.906;8.376;2023-03-20T14:23:33;100974.13;;;12.61;64.71
19112;BME280;9688;51.906;8.376;2023-03-20T14:26:24;100964.50;;;12.59;65.18
19112;BME280;9688;51.906;8.376;2023-03-20T14:29:36;100970.06;;;12.53;65.04
19112;BME280;9688;51.906;8.376;2023-03-20T14:32:33;100972.25;;;12.41;65.97
19112;BME280;9688;51.906;8.376;2023-03-20T14:35:25;100975.00;;;12.40;66.06
19112;BME280;9688;51.906;8.376;2023-03-20T14:38:23;100967.28;;;12.34;66.35
19112;BME280;9688;51.906;8.376;2023-03-20T14:41:16;100959.38;;;12.32;66.03
19112;BME280;9688;51.906;8.376;2023-03-20T14:44:19;100970.22;;;12.26;66.67
19112;BME280;9688;51.906;8.376;2023-03-20T14:47:16;100972.81;;;12.27;66.85
19112;BME280;9688;51.906;8.376;2023-03-20T14:50:11;100978.91;;;12.30;66.65
19112;BME280;9688;51.906;8.376;2023-03-20T14:53:11;100964.69;;;12.32;66.95
19112;BME280;9688;51.906;8.376;2023-03-20T14:56:06;100969.03;;;12.33;67.32
19112;BME280;9688;51.906;8.376;2023-03-20T14:58:55;100967.34;;;12.32;67.68
19112;BME280;9688;51.906;8.376;2023-03-20T15:01:47;100965.63;;;12.31;67.70
19112;BME280;9688;51.906;8.376;2023-03-20T15:04:41;100959.75;;;12.23;67.37
19112;BME280;9688;51.906;8.376;2023-03-20T15:07:28;100960.88;;;12.17;68.18